Time;durP1;ratioP1;P1;durP2;ratioP2;P2;SDS_P1;SDS_P2;PMS_P1;PMS_P2;Temp;Humidity;BMP_temperature;BMP_pressure;BME280_temperature;BME280_humidity;BME280_pressure;Samples;Min_cycle;Max_cycle;Signal;HPM_P1;HPM_P2
2022/05/12 00:01:58;;;;;;;6.80;1.00;;;11.60;99.90;;;;;;4974988;28;20085;-49
2022/05/12 00:04:25;;;;;;;5.07;1.10;;;11.70;99.90;;;;;;4975198;28;20510;-51
2022/05/12 00:06:50;;;;;;;5.65;1.23;;;11.60;99.90;;;;;;4975028;28;20406;-48
2022/05/12 00:09:16;;;;;;;5.93;1.17;;;11.60;99.90;;;;;;4974529;28;20038;-49
2022/05/12 00:11:42;;;;;;;2.65;0.77;;;11.60;99.90;;;;;;4956898;28;20051;-51
2022/05/12 00:14:08;;;;;;;5.45;0.80;;;11.60;99.90;;;;;;4974374;28;20039;-48
2022/05/12 00:16:34;;;;;;;7.72;1.58;;;11.60;99.90;;;;;;4974288;28;20034;-50
2022/05/12 00:19:00;;;;;;;4.65;0.70;;;11.60;99.90;;;;;;4974104;28;20054;-48
2022/05/12 00:21:25;;;;;;;3.17;0.77;;;11.60;99.90;;;;;;4974535;28;20041;-51
2022/05/12 00:23:57;;;;;;;5.60;0.80;;;11.50;99.90;;;;;;4974215;28;20049;-46
2022/05/12 00:26:34;;;;;;;5.18;0.82;;;11.50;99.90;;;;;;4973721;28;20074;-48
2022/05/12 00:29:05;;;;;;;3.92;0.80;;;11.50;99.90;;;;;;4974219;28;20105;-50
2022/05/12 00:31:32;;;;;;;2.90;0.85;;;11.50;99.90;;;;;;4974489;28;20121;-47
2022/05/12 00:33:58;;;;;;;2.92;0.85;;;11.50;99.90;;;;;;4973345;28;20035;-51
2022/05/12 00:36:23;;;;;;;4.60;0.85;;;11.50;99.90;;;;;;4974027;28;20048;-48
2022/05/12 00:38:49;;;;;;;3.80;0.98;;;11.50;99.90;;;;;;4974443;28;20394;-51
2022/05/12 00:41:15;;;;;;;4.20;0.90;;;11.40;99.90;;;;;;4973799;28;20043;-48
2022/05/12 00:43:46;;;;;;;3.38;0.73;;;11.40;99.90;;;;;;4973953;28;20058;-47
2022/05/12 00:46:18;;;;;;;3.75;0.95;;;11.40;99.90;;;;;;4973380;28;20034;-52
2022/05/12 00:48:45;;;;;;;3.20;0.80;;;11.40;99.90;;;;;;4973628;28;20117;-46
2022/05/12 00:51:17;;;;;;;2.65;0.73;;;11.30;99.90;;;;;;4973842;28;20511;-49
2022/05/12 00:53:45;;;;;;;2.92;1.13;;;11.30;99.90;;;;;;4974010;28;20027;-47
2022/05/12 00:56:14;;;;;;;6.00;1.10;;;11.30;99.90;;;;;;4974068;28;20101;-46
2022/05/12 00:58:41;;;;;;;6.50;1.10;;;11.30;99.90;;;;;;4973705;28;20035;-46
2022/05/12 01:01:10;;;;;;;5.40;0.98;;;11.30;99.90;;;;;;4974206;28;20094;-46
2022/05/12 01:03:38;;;;;;;2.67;0.88;;;11.30;99.90;;;;;;4973793;28;20034;-47
2022/05/12 01:06:04;;;;;;;5.82;1.13;;;11.30;99.90;;;;;;4973565;28;20038;-49
2022/05/12 01:08:30;;;;;;;3.65;0.90;;;11.30;99.90;;;;;;4955107;28;20090;-46
2022/05/12 01:11:17;;;;;;;4.43;1.00;;;11.20;99.90;;;;;;4956231;28;20109;-47
2022/05/12 01:13:46;;;;;;;5.55;1.45;;;11.30;99.90;;;;;;4973863;28;20450;-46
2022/05/12 01:16:51;;;;;;;8.98;1.30;;;11.20;99.90;;;;;;4972810;28;20109;-47
2022/05/12 01:19:20;;;;;;;4.38;1.00;;;11.20;99.90;;;;;;4971402;28;20047;-46
2022/05/12 01:21:47;;;;;;;5.60;1.10;;;11.20;99.90;;;;;;4973265;28;20486;-48
2022/05/12 01:24:14;;;;;;;7.18;1.00;;;11.10;99.90;;;;;;4972713;28;20101;-50
2022/05/12 01:26:41;;;;;;;5.55;1.00;;;11.00;99.90;;;;;;4973034;28;20054;-47
2022/05/12 01:29:07;;;;;;;8.48;1.10;;;11.00;99.90;;;;;;4973306;28;20030;-48
2022/05/12 01:31:34;;;;;;;3.42;0.95;;;10.90;99.90;;;;;;4973158;28;20043;-46
2022/05/12 01:34:01;;;;;;;5.93;1.02;;;10.80;99.90;;;;;;4972912;28;20105;-46
2022/05/12 01:36:27;;;;;;;5.00;1.10;;;10.80;99.90;;;;;;4972677;28;20081;-48
2022/05/12 01:38:53;;;;;;;6.13;1.20;;;10.80;99.90;;;;;;4972554;28;20039;-48
2022/05/12 01:41:19;;;;;;;7.55;1.88;;;10.80;99.90;;;;;;4955878;28;20112;-50
2022/05/12 01:43:45;;;;;;;8.48;1.50;;;10.80;99.90;;;;;;4955247;28;20054;-50
2022/05/12 01:46:11;;;;;;;9.45;1.33;;;10.70;99.90;;;;;;4972105;28;20035;-48
2022/05/12 01:48:38;;;;;;;6.00;1.50;;;10.70;99.90;;;;;;4973258;28;20486;-50
2022/05/12 01:51:05;;;;;;;6.38;1.25;;;10.60;99.90;;;;;;4972964;28;20065;-47
2022/05/12 01:53:30;;;;;;;6.72;1.30;;;10.60;99.90;;;;;;4972595;28;20494;-50
2022/05/12 01:55:57;;;;;;;11.55;1.50;;;10.60;99.90;;;;;;4955263;28;20425;-50
2022/05/12 01:58:23;;;;;;;8.93;1.50;;;10.70;99.90;;;;;;4972729;28;20046;-48
2022/05/12 02:00:49;;;;;;;8.63;1.45;;;10.60;99.90;;;;;;4972798;28;20043;-47
2022/05/12 02:03:15;;;;;;;7.07;1.70;;;10.50;99.90;;;;;;4972208;28;20121;-48
2022/05/12 02:05:41;;;;;;;7.20;1.60;;;10.60;99.90;;;;;;4972335;28;20037;-46
2022/05/12 02:08:08;;;;;;;10.18;1.63;;;10.60;99.90;;;;;;4967958;28;20035;-45
2022/05/12 02:10:38;;;;;;;9.43;1.67;;;10.50;99.90;;;;;;4970266;28;20053;-48
2022/05/12 02:13:05;;;;;;;9.25;1.55;;;10.50;99.90;;;;;;4971516;28;20431;-47
2022/05/12 02:15:31;;;;;;;7.32;1.85;;;10.50;99.90;;;;;;4972168;28;20114;-48
2022/05/12 02:17:57;;;;;;;10.32;1.60;;;10.50;99.90;;;;;;4972477;28;20121;-47
2022/05/12 02:20:23;;;;;;;7.72;1.73;;;10.50;99.90;;;;;;4972495;28;20042;-48
2022/05/12 02:22:49;;;;;;;10.02;2.28;;;10.40;99.90;;;;;;4972398;28;20039;-49
2022/05/12 02:25:16;;;;;;;10.25;1.80;;;10.40;99.90;;;;;;4972332;28;20045;-47
2022/05/12 02:27:45;;;;;;;14.07;2.20;;;10.40;99.90;;;;;;4972024;28;20447;-47
2022/05/12 02:30:23;;;;;;;9.35;2.15;;;10.30;99.90;;;;;;4972407;28;20097;-50
2022/05/12 02:32:49;;;;;;;10.30;1.92;;;10.30;99.90;;;;;;4972115;28;20137;-49
2022/05/12 02:35:15;;;;;;;10.40;2.63;;;10.20;99.90;;;;;;4972029;28;20105;-49
2022/05/12 02:37:41;;;;;;;8.23;1.92;;;10.30;99.90;;;;;;4954595;28;20126;-51
2022/05/12 02:40:08;;;;;;;6.90;1.88;;;10.20;99.90;;;;;;4971951;28;20113;-49
2022/05/12 02:42:34;;;;;;;7.38;1.90;;;10.20;99.90;;;;;;4972204;28;20066;-48
2022/05/12 02:45:00;;;;;;;9.35;2.22;;;10.10;99.90;;;;;;4971887;28;20541;-48
2022/05/12 02:47:26;;;;;;;11.98;2.08;;;10.00;99.90;;;;;;4970877;28;20043;-47
2022/05/12 02:49:51;;;;;;;10.55;2.60;;;9.90;99.90;;;;;;4970985;28;20046;-47
2022/05/12 02:52:17;;;;;;;11.20;2.88;;;9.80;99.90;;;;;;4971722;28;20039;-49
2022/05/12 02:54:43;;;;;;;11.95;2.42;;;9.80;99.90;;;;;;4972139;28;20086;-48
2022/05/12 02:57:08;;;;;;;10.18;2.35;;;9.80;99.90;;;;;;4971785;28;20295;-45
2022/05/12 02:59:34;;;;;;;11.27;2.67;;;9.80;99.90;;;;;;4979843;28;20553;-46
2022/05/12 03:02:00;;;;;;;14.68;2.50;;;9.70;99.90;;;;;;4971572;28;20125;-48
2022/05/12 03:04:26;;;;;;;12.10;2.17;;;9.70;99.90;;;;;;4972007;28;20460;-48
2022/05/12 03:06:52;;;;;;;11.45;2.58;;;9.80;99.90;;;;;;4971843;28;20046;-46
2022/05/12 03:09:18;;;;;;;10.60;2.65;;;9.70;99.90;;;;;;4971889;28;20535;-47
2022/05/12 03:11:44;;;;;;;11.05;2.90;;;9.70;99.90;;;;;;4971554;28;20039;-46
2022/05/12 03:14:10;;;;;;;13.10;3.33;;;9.60;99.90;;;;;;4971780;28;20100;-49
2022/05/12 03:16:36;;;;;;;8.68;2.88;;;9.60;99.90;;;;;;4970174;28;20038;-48
2022/05/12 03:19:03;;;;;;;12.63;3.35;;;9.50;99.90;;;;;;4971462;28;20050;-48
2022/05/12 03:21:28;;;;;;;13.05;3.20;;;9.50;99.90;;;;;;4971937;28;20406;-50
2022/05/12 03:23:54;;;;;;;8.43;3.03;;;9.50;99.90;;;;;;4971269;28;20050;-48
2022/05/12 03:26:21;;;;;;;12.73;3.17;;;9.40;99.90;;;;;;4986173;28;20133;-51
2022/05/12 03:28:46;;;;;;;8.60;2.92;;;9.50;99.90;;;;;;4971749;28;20410;-49
2022/05/12 03:31:13;;;;;;;10.20;2.85;;;9.30;99.90;;;;;;4971452;28;20043;-52
2022/05/12 03:33:39;;;;;;;8.93;2.50;;;9.20;99.90;;;;;;4970354;28;20039;-48
2022/05/12 03:36:06;;;;;;;11.57;3.10;;;9.30;99.90;;;;;;4971671;28;20475;-50
2022/05/12 03:38:32;;;;;;;10.68;2.92;;;9.30;99.90;;;;;;4971545;28;20043;-47
2022/05/12 03:40:58;;;;;;;14.40;3.35;;;9.20;99.90;;;;;;4971283;28;20035;-46
2022/05/12 03:46:09;;;;;;;9.15;3.35;;;9.20;99.90;;;;;;4970606;28;20050;-50
2022/05/12 03:48:36;;;;;;;10.88;3.47;;;9.10;99.90;;;;;;4971286;28;20487;-49
2022/05/12 03:51:03;;;;;;;13.07;3.60;;;9.10;99.90;;;;;;4970962;28;20166;-49
2022/05/12 03:53:30;;;;;;;9.95;3.88;;;9.10;99.90;;;;;;4971263;28;20487;-46
2022/05/12 03:55:57;;;;;;;12.02;4.00;;;9.10;99.90;;;;;;4971263;28;20049;-49
2022/05/12 03:58:23;;;;;;;11.93;4.05;;;9.10;99.90;;;;;;4969922;28;20030;-48
2022/05/12 04:00:50;;;;;;;10.13;4.97;;;9.00;99.90;;;;;;4975093;28;20070;-49
2022/05/12 04:03:16;;;;;;;14.77;5.18;;;9.10;99.90;;;;;;4974456;28;20133;-50
2022/05/12 04:05:43;;;;;;;13.75;6.10;;;9.20;99.90;;;;;;4974790;28;20090;-50
2022/05/12 04:08:09;;;;;;;16.20;6.22;;;9.10;99.90;;;;;;4973447;28;20050;-48
2022/05/12 04:10:35;;;;;;;12.90;7.20;;;9.10;99.90;;;;;;4974748;28;20038;-47
2022/05/12 04:13:01;;;;;;;20.85;6.97;;;9.20;99.90;;;;;;4974382;28;20035;-48
2022/05/12 04:15:26;;;;;;;13.50;6.63;;;9.10;99.90;;;;;;4974293;28;20043;-50
2022/05/12 04:17:57;;;;;;;15.20;6.90;;;9.10;99.90;;;;;;4974446;28;20023;-50
2022/05/12 04:20:24;;;;;;;17.80;7.25;;;9.30;99.90;;;;;;4956436;28;20141;-47
2022/05/12 04:22:50;;;;;;;17.50;7.15;;;9.20;99.90;;;;;;4974667;28;20046;-49
2022/05/12 04:25:16;;;;;;;19.95;8.07;;;9.30;99.90;;;;;;4974330;28;20042;-49
2022/05/12 04:27:42;;;;;;;12.65;6.80;;;9.20;99.90;;;;;;4974259;28;20043;-49
2022/05/12 04:30:11;;;;;;;19.88;7.88;;;9.20;99.90;;;;;;4974577;28;20066;-48
2022/05/12 04:32:37;;;;;;;18.17;8.35;;;9.30;99.90;;;;;;4957412;28;20093;-49
2022/05/12 04:35:11;;;;;;;16.52;7.35;;;9.20;99.90;;;;;;4974317;28;20039;-47
2022/05/12 04:37:44;;;;;;;15.82;7.00;;;9.20;99.90;;;;;;4974175;28;20031;-50
2022/05/12 04:40:15;;;;;;;16.43;7.30;;;9.20;99.90;;;;;;4954463;28;20050;-49
2022/05/12 04:42:41;;;;;;;18.25;7.57;;;9.30;99.90;;;;;;4974169;28;20114;-46
2022/05/12 04:45:09;;;;;;;14.65;7.32;;;9.30;99.90;;;;;;4973713;28;20122;-48
2022/05/12 04:47:37;;;;;;;23.58;7.45;;;9.40;99.90;;;;;;4973638;28;20122;-47
2022/05/12 04:50:04;;;;;;;15.68;6.68;;;9.30;99.90;;;;;;4956341;28;20078;-51
2022/05/12 04:52:30;;;;;;;17.00;6.70;;;9.30;99.90;;;;;;4973887;28;20492;-50
2022/05/12 04:54:55;;;;;;;18.30;6.47;;;9.50;99.90;;;;;;4973527;28;20977;-49
2022/05/12 04:57:22;;;;;;;16.45;6.50;;;9.40;99.90;;;;;;4973842;28;20042;-49
2022/05/12 04:59:51;;;;;;;13.02;6.07;;;9.50;99.90;;;;;;4956269;28;20030;-48
2022/05/12 05:02:17;;;;;;;14.90;6.10;;;9.40;99.90;;;;;;4973763;28;20043;-47
2022/05/12 05:04:43;;;;;;;17.92;6.95;;;9.50;99.90;;;;;;4972990;28;20287;-51
2022/05/12 05:07:11;;;;;;;21.38;7.13;;;9.70;99.90;;;;;;4972272;28;20054;-48
2022/05/12 05:09:37;;;;;;;16.15;7.43;;;9.60;99.90;;;;;;4973354;28;20117;-47
2022/05/12 05:12:03;;;;;;;15.02;7.15;;;9.70;99.90;;;;;;4972930;28;20167;-49
2022/05/12 05:14:29;;;;;;;18.42;8.05;;;9.80;99.90;;;;;;4972018;28;20038;-49
2022/05/12 05:16:55;;;;;;;20.80;7.85;;;9.90;99.90;;;;;;4972029;28;20420;-52
2022/05/12 05:19:21;;;;;;;20.23;8.15;;;9.80;99.90;;;;;;4973546;28;20077;-49
2022/05/12 05:21:47;;;;;;;18.60;8.52;;;9.90;99.90;;;;;;4973360;28;20043;-50
2022/05/12 05:24:13;;;;;;;19.60;9.10;;;9.90;99.90;;;;;;4973222;28;20058;-47
2022/05/12 05:26:38;;;;;;;18.98;8.63;;;10.10;99.90;;;;;;4973271;28;20042;-47
2022/05/12 05:29:04;;;;;;;19.70;8.95;;;10.10;99.90;;;;;;4972933;28;20047;-51
2022/05/12 05:31:30;;;;;;;26.35;10.02;;;10.20;99.90;;;;;;4972787;28;20057;-48
2022/05/12 05:33:56;;;;;;;24.90;9.95;;;10.40;99.90;;;;;;4972934;28;20391;-51
2022/05/12 05:36:21;;;;;;;22.92;10.35;;;10.60;99.90;;;;;;4973113;28;20046;-52
2022/05/12 05:38:47;;;;;;;25.40;9.88;;;10.60;99.90;;;;;;4972837;28;20049;-50
2022/05/12 05:41:13;;;;;;;25.40;10.10;;;10.70;99.90;;;;;;4973092;28;20050;-47
2022/05/12 05:43:39;;;;;;;23.38;9.95;;;10.80;99.90;;;;;;4971585;28;20035;-47
2022/05/12 05:46:05;;;;;;;29.17;10.20;;;10.90;99.90;;;;;;4972235;28;20047;-49
2022/05/12 05:48:32;;;;;;;24.00;9.35;;;10.90;99.90;;;;;;4971700;28;20526;-52
2022/05/12 05:53:42;;;;;;;22.17;9.15;;;11.10;99.90;;;;;;4972732;28;20078;-50
2022/05/12 05:56:14;;;;;;;18.17;7.82;;;11.30;99.90;;;;;;4972513;28;20043;-50
2022/05/12 05:58:43;;;;;;;16.13;7.43;;;11.30;99.90;;;;;;4955556;28;20038;-49
2022/05/12 06:01:09;;;;;;;17.60;8.20;;;11.40;99.90;;;;;;4972510;28;20509;-50
2022/05/12 06:03:34;;;;;;;18.58;7.22;;;11.40;99.90;;;;;;4970986;28;20085;-49
2022/05/12 06:06:01;;;;;;;17.42;6.72;;;11.50;99.90;;;;;;4972725;28;20073;-51
2022/05/12 06:08:27;;;;;;;18.58;6.13;;;11.80;99.90;;;;;;4972230;28;20049;-52
2022/05/12 06:10:52;;;;;;;20.13;7.05;;;11.70;99.90;;;;;;4972592;28;20446;-50
2022/05/12 06:13:18;;;;;;;15.93;5.85;;;11.90;99.90;;;;;;4971657;28;20043;-49
2022/05/12 06:15:44;;;;;;;18.63;6.00;;;11.90;99.90;;;;;;4971873;28;20221;-52
2022/05/12 06:18:16;;;;;;;14.93;5.68;;;11.90;99.90;;;;;;4971974;28;20038;-48
2022/05/12 06:20:44;;;;;;;20.20;6.18;;;12.10;99.90;;;;;;4938395;28;20071;-48
2022/05/12 06:23:11;;;;;;;18.75;5.60;;;12.10;99.90;;;;;;4971979;28;20439;-46
2022/05/12 06:25:37;;;;;;;14.95;4.93;;;12.20;99.90;;;;;;4972302;28;20050;-49
2022/05/12 06:28:03;;;;;;;15.60;5.13;;;12.30;99.90;;;;;;4954512;28;20038;-47
2022/05/12 06:30:29;;;;;;;11.55;5.03;;;12.40;99.90;;;;;;4972290;28;20085;-49
2022/05/12 06:32:56;;;;;;;13.80;5.32;;;12.50;99.90;;;;;;4954574;28;20042;-47
2022/05/12 06:35:23;;;;;;;13.52;5.18;;;12.50;99.90;;;;;;4970922;28;20076;-46
2022/05/12 06:37:50;;;;;;;15.27;5.93;;;12.60;99.90;;;;;;4954938;28;20121;-49
2022/05/12 06:40:16;;;;;;;10.82;5.18;;;12.60;99.90;;;;;;4972592;28;20027;-48
2022/05/12 06:42:43;;;;;;;13.68;5.07;;;12.60;99.90;;;;;;4972168;28;20034;-50
2022/05/12 06:45:11;;;;;;;15.55;5.10;;;12.60;99.90;;;;;;4971233;28;20089;-49
2022/05/12 06:47:37;;;;;;;11.07;4.85;;;12.80;99.90;;;;;;4971462;28;20055;-49
2022/05/12 06:50:03;;;;;;;17.33;4.50;;;12.80;99.90;;;;;;4953747;28;20047;-50
2022/05/12 06:52:30;;;;;;;14.43;3.78;;;12.90;99.90;;;;;;4971647;28;20465;-48
2022/05/12 06:54:57;;;;;;;13.40;4.18;;;12.90;99.90;;;;;;4971774;28;20042;-48
2022/05/12 06:57:27;;;;;;;11.98;3.88;;;13.10;99.90;;;;;;4971369;28;20066;-49
2022/05/12 06:59:54;;;;;;;9.55;3.85;;;13.10;99.90;;;;;;4971412;28;20043;-48
2022/05/12 07:02:20;;;;;;;10.50;3.83;;;13.20;99.90;;;;;;4971850;28;20068;-46
2022/05/12 07:04:46;;;;;;;16.33;3.85;;;13.10;99.90;;;;;;4971615;28;20061;-51
2022/05/12 07:07:13;;;;;;;13.35;4.55;;;13.30;99.90;;;;;;4954582;28;20046;-52
2022/05/12 07:09:39;;;;;;;12.85;3.60;;;13.30;99.90;;;;;;4971279;28;20579;-48
2022/05/12 07:12:05;;;;;;;12.75;2.78;;;13.30;99.90;;;;;;4970086;28;20122;-48
2022/05/12 07:14:31;;;;;;;10.50;2.55;;;13.40;99.90;;;;;;4968090;28;20042;-48
2022/05/12 07:16:57;;;;;;;8.77;2.30;;;13.40;99.90;;;;;;4969744;28;20442;-47
2022/05/12 07:19:23;;;;;;;8.57;2.20;;;13.40;99.90;;;;;;4970540;28;20300;-53
2022/05/12 07:27:18;;;;;;;;;;;13.50;99.90;;;;;;4965321;28;20097;-47
2022/05/12 07:29:44;;;;;;;12.75;2.75;;;13.60;99.90;;;;;;4964136;28;19924;-48
2022/05/12 07:32:10;;;;;;;14.50;3.50;;;13.60;99.90;;;;;;4964665;28;20097;-46
2022/05/12 07:34:36;;;;;;;13.25;3.30;;;13.70;99.90;;;;;;4964415;28;20105;-46
2022/05/12 07:37:03;;;;;;;10.85;2.90;;;13.70;99.90;;;;;;4970087;28;20039;-47
2022/05/12 07:39:30;;;;;;;12.25;2.80;;;13.80;99.90;;;;;;4967636;28;20500;-46
2022/05/12 07:41:57;;;;;;;11.93;2.63;;;13.80;99.90;;;;;;4967947;28;20039;-45
2022/05/12 07:44:31;;;;;;;10.98;2.85;;;13.90;99.90;;;;;;4969739;28;20312;-47
2022/05/12 07:46:58;;;;;;;;;;;14.00;99.90;;;;;;4967825;28;20098;-46
2022/05/12 07:49:24;;;;;;;11.95;3.08;;;14.00;99.90;;;;;;4968367;28;19914;-47
2022/05/12 07:51:50;;;;;;;10.63;3.00;;;14.00;99.90;;;;;;4967537;28;20039;-45
2022/05/12 07:54:16;;;;;;;14.10;3.10;;;14.10;99.90;;;;;;4967779;28;20065;-45
2022/05/12 07:56:41;;;;;;;13.75;2.97;;;14.10;99.90;;;;;;4967913;28;20038;-48
2022/05/12 07:59:07;;;;;;;10.40;2.50;;;14.20;99.90;;;;;;4967451;28;20046;-46
2022/05/12 08:01:33;;;;;;;8.82;2.45;;;14.20;99.90;;;;;;4969489;28;20045;-49
2022/05/12 08:03:58;;;;;;;11.00;2.55;;;14.00;99.90;;;;;;4967873;28;20117;-47
2022/05/12 08:06:24;;;;;;;12.48;2.83;;;13.90;99.90;;;;;;4967718;28;20097;-45
2022/05/12 08:08:51;;;;;;;9.93;2.95;;;14.00;99.90;;;;;;4968836;28;20039;-47
2022/05/12 08:11:18;;;;;;;12.00;2.67;;;14.10;99.90;;;;;;4968332;28;20031;-48
2022/05/12 08:13:46;;;;;;;9.90;2.63;;;14.00;99.90;;;;;;4966286;28;20045;-48
2022/05/12 08:16:13;;;;;;;11.05;2.63;;;14.10;99.90;;;;;;4967861;28;20399;-48
2022/05/12 08:18:42;;;;;;;7.68;2.65;;;14.20;99.90;;;;;;4968520;28;20034;-48
2022/05/12 08:21:07;;;;;;;10.15;2.55;;;14.50;99.90;;;;;;4967358;28;20046;-50
2022/05/12 08:23:33;;;;;;;7.75;2.20;;;14.70;99.90;;;;;;4965456;28;20039;-47
2022/05/12 08:25:59;;;;;;;8.00;1.73;;;14.70;99.90;;;;;;4968016;28;20145;-46
2022/05/12 08:28:25;;;;;;;9.70;2.22;;;14.70;99.90;;;;;;4968213;28;20164;-47
2022/05/12 08:30:51;;;;;;;7.35;2.17;;;14.80;99.90;;;;;;4968559;28;20051;-47
2022/05/12 08:33:18;;;;;;;10.73;2.78;;;14.90;99.90;;;;;;4967035;28;20043;-48
2022/05/12 08:35:44;;;;;;;9.05;2.50;;;14.90;99.90;;;;;;4968610;28;20041;-46
2022/05/12 08:38:12;;;;;;;8.88;2.55;;;15.10;99.90;;;;;;4966799;28;20030;-48
2022/05/12 08:40:48;;;;;;;6.97;2.08;;;15.00;99.90;;;;;;4965911;28;20070;-47
2022/05/12 08:43:17;;;;;;;12.02;2.35;;;15.00;99.90;;;;;;4966826;28;20046;-48
2022/05/12 08:45:44;;;;;;;6.75;2.40;;;15.10;99.90;;;;;;4964396;28;20069;-47
2022/05/12 08:48:13;;;;;;;8.18;2.00;;;15.10;99.90;;;;;;4967847;28;20062;-49
2022/05/12 08:50:40;;;;;;;10.82;2.45;;;15.30;99.90;;;;;;4966848;28;20026;-50
2022/05/12 08:53:13;;;;;;;16.40;2.53;;;15.40;99.90;;;;;;4964198;28;20050;-48
2022/05/12 08:55:45;;;;;;;11.38;2.38;;;15.40;99.90;;;;;;4971088;28;20040;-51
2022/05/12 08:58:33;;;;;;;13.48;2.45;;;15.40;99.90;;;;;;4969442;28;20035;-47
2022/05/12 09:01:01;;;;;;;7.65;1.73;;;15.60;99.90;;;;;;4971384;28;20038;-48
2022/05/12 09:04:07;;;;;;;7.95;1.98;;;15.60;99.90;;;;;;4971247;28;20046;-48
2022/05/12 09:06:47;;;;;;;10.05;2.35;;;15.60;99.90;;;;;;4971757;28;20070;-47
2022/05/12 09:09:19;;;;;;;8.48;2.30;;;15.70;99.90;;;;;;4973087;28;20046;-45
2022/05/12 09:12:22;;;;;;;6.53;1.90;;;15.70;99.90;;;;;;4973151;28;20047;-47
2022/05/12 09:14:58;;;;;;;8.60;2.00;;;15.80;99.90;;;;;;4973339;28;20038;-45
2022/05/12 09:17:29;;;;;;;8.80;2.03;;;16.00;99.90;;;;;;4973079;28;20506;-48
2022/05/12 09:19:58;;;;;;;6.07;1.70;;;16.40;99.90;;;;;;4972589;28;20497;-47
2022/05/12 09:22:26;;;;;;;7.45;1.60;;;16.50;99.90;;;;;;4951428;28;20042;-46
2022/05/12 09:24:52;;;;;;;8.65;1.60;;;16.50;99.90;;;;;;4969027;28;20116;-46
2022/05/12 09:27:28;;;;;;;6.55;1.42;;;16.40;99.90;;;;;;4967639;28;20050;-48
2022/05/12 09:29:54;;;;;;;5.63;1.60;;;16.70;99.90;;;;;;4950309;28;20108;-50
2022/05/12 09:32:25;;;;;;;5.15;1.55;;;16.60;99.90;;;;;;4967521;28;20039;-48
2022/05/12 09:35:10;;;;;;;5.55;1.40;;;16.70;99.90;;;;;;4966177;28;20043;-49
2022/05/12 09:37:40;;;;;;;6.05;1.48;;;16.80;99.90;;;;;;4964904;28;20122;-46
2022/05/12 09:40:14;;;;;;;8.68;1.63;;;16.90;99.90;;;;;;4963986;28;20043;-47
2022/05/12 09:42:47;;;;;;;10.65;2.05;;;17.00;99.90;;;;;;4965470;28;20057;-47
2022/05/12 09:45:16;;;;;;;6.32;1.42;;;17.00;99.90;;;;;;4966069;28;20049;-49
2022/05/12 09:47:42;;;;;;;7.47;1.67;;;16.90;99.90;;;;;;4932658;28;20051;-48
2022/05/12 09:50:28;;;;;;;8.95;2.10;;;17.10;99.90;;;;;;4928945;29;20050;-51
2022/05/12 09:52:54;;;;;;;7.88;1.77;;;17.00;99.90;;;;;;4929836;29;20074;-48
2022/05/12 09:55:32;;;;;;;7.18;1.48;;;17.10;99.90;;;;;;4928175;29;20031;-49
2022/05/12 09:57:57;;;;;;;8.07;1.55;;;17.00;99.90;;;;;;4928521;29;20035;-47
2022/05/12 10:00:48;;;;;;;6.03;1.73;;;17.40;99.90;;;;;;4928261;29;20342;-47
2022/05/12 10:09:05;;;;;;;7.43;1.65;;;17.40;99.90;;;;;;4928463;29;20099;-49
2022/05/12 10:11:41;;;;;;;5.20;1.55;;;17.30;99.90;;;;;;4929851;29;20126;-45
2022/05/12 10:14:12;;;;;;;7.22;1.83;;;17.50;99.90;;;;;;4930841;29;20344;-45
2022/05/12 10:16:38;;;;;;;7.05;1.63;;;17.50;99.90;;;;;;4926331;29;20565;-47
2022/05/12 10:19:10;;;;;;;9.00;1.30;;;17.50;99.90;;;;;;4929638;29;20271;-48
2022/05/12 10:22:09;;;;;;;6.25;1.48;;;17.50;99.90;;;;;;4929684;29;20063;-47
2022/05/12 10:25:13;;;;;;;4.72;1.40;;;17.80;99.90;;;;;;4922986;29;20055;-46
2022/05/12 10:27:52;;;;;;;6.78;1.75;;;17.80;99.90;;;;;;4922972;29;20048;-48
2022/05/12 10:30:45;;;;;;;6.00;1.30;;;18.00;99.90;;;;;;4927146;29;20046;-51
2022/05/12 10:33:26;;;;;;;6.35;1.40;;;17.90;99.90;;;;;;4927882;29;20141;-48
2022/05/12 10:36:06;;;;;;;5.78;1.45;;;17.90;99.90;;;;;;4930156;29;20122;-47
2022/05/12 10:38:45;;;;;;;5.60;1.63;;;17.90;99.90;;;;;;4925027;29;20043;-49
2022/05/12 10:41:17;;;;;;;6.03;1.38;;;17.70;99.90;;;;;;4929496;29;20144;-48
2022/05/12 10:44:06;;;;;;;6.70;1.60;;;17.90;99.90;;;;;;4925487;29;20059;-47
2022/05/12 10:46:49;;;;;;;5.97;1.60;;;18.20;99.90;;;;;;4933701;28;20063;-51
2022/05/12 10:49:34;;;;;;;7.63;1.63;;;18.20;99.90;;;;;;4967470;28;20406;-47
2022/05/12 10:52:28;;;;;;;6.20;1.60;;;18.40;99.90;;;;;;4967695;28;20055;-48
2022/05/12 10:55:18;;;;;;;5.55;1.20;;;18.20;99.90;;;;;;4963924;28;20047;-48
2022/05/12 10:58:20;;;;;;;4.00;1.30;;;18.00;99.90;;;;;;4955829;28;20038;-46
2022/05/12 11:01:00;;;;;;;4.20;1.27;;;18.10;99.90;;;;;;4965445;28;20090;-46
2022/05/12 11:03:58;;;;;;;7.47;1.67;;;18.50;99.90;;;;;;4965261;28;20046;-50
2022/05/12 11:06:30;;;;;;;5.22;1.70;;;18.50;99.90;;;;;;4938205;28;20494;-52
2022/05/12 11:09:09;;;;;;;8.20;1.40;;;18.70;99.90;;;;;;4948764;28;20538;-49
2022/05/12 11:11:42;;;;;;;5.32;1.20;;;18.90;99.90;;;;;;4962953;28;20051;-52
2022/05/12 11:14:15;;;;;;;5.53;1.40;;;19.00;99.60;;;;;;4962951;28;20031;-50
2022/05/12 11:17:10;;;;;;;11.95;1.50;;;19.00;99.90;;;;;;4960905;28;20038;-49
2022/05/12 11:19:38;;;;;;;6.68;1.30;;;19.00;99.90;;;;;;4944424;28;20399;-50
2022/05/12 11:22:18;;;;;;;6.50;1.40;;;19.30;99.70;;;;;;4966182;28;20125;-48
2022/05/12 11:24:59;;;;;;;6.78;1.70;;;19.00;98.60;;;;;;4964301;28;20045;-46
2022/05/12 11:27:35;;;;;;;7.63;1.52;;;19.00;99.00;;;;;;4947377;28;20046;-49
2022/05/12 11:30:24;;;;;;;9.90;1.58;;;18.90;98.60;;;;;;4963583;28;20034;-49
2022/05/12 11:33:02;;;;;;;13.70;1.60;;;19.30;99.00;;;;;;4965879;28;20497;-48
2022/05/12 11:35:36;;;;;;;4.00;1.05;;;19.60;99.90;;;;;;4964813;28;20467;-50
2022/05/12 11:38:07;;;;;;;3.45;1.17;;;19.40;98.00;;;;;;4964784;28;20078;-53
2022/05/12 11:40:48;;;;;;;5.57;1.30;;;19.70;97.50;;;;;;4964300;28;21148;-49
2022/05/12 11:46:53;;;;;;;10.07;1.33;;;19.60;96.80;;;;;;4961001;28;20156;-48
2022/05/12 11:49:43;;;;;;;5.30;1.35;;;19.80;95.90;;;;;;4963162;28;20122;-50
2022/05/12 11:52:36;;;;;;;4.10;0.90;;;19.80;96.10;;;;;;4965173;28;21949;-49
2022/05/12 11:55:18;;;;;;;4.53;1.05;;;19.80;95.70;;;;;;4962630;28;20039;-48
2022/05/12 11:58:03;;;;;;;7.18;1.20;;;19.70;94.20;;;;;;4962569;28;20077;-48
2022/05/12 12:00:35;;;;;;;5.50;1.13;;;19.90;95.60;;;;;;4962811;28;20117;-50
2022/05/12 12:03:19;;;;;;;5.20;1.10;;;20.30;95.60;;;;;;4966152;28;20045;-50
2022/05/12 12:05:51;;;;;;;5.00;0.88;;;20.20;93.60;;;;;;4967840;28;20039;-46
2022/05/12 12:08:44;;;;;;;5.20;1.33;;;20.20;93.40;;;;;;4968253;28;20074;-51
2022/05/12 12:11:12;;;;;;;7.57;1.27;;;20.30;92.50;;;;;;4968899;28;20042;-49
2022/05/12 12:13:39;;;;;;;4.65;1.00;;;20.60;94.30;;;;;;4951333;28;20042;-46
2022/05/12 12:16:09;;;;;;;4.68;1.05;;;20.40;92.30;;;;;;4969325;28;20053;-49
2022/05/12 12:18:35;;;;;;;10.07;1.30;;;20.40;93.00;;;;;;4970233;28;20479;-48
2022/05/12 12:21:34;;;;;;;4.78;0.82;;;20.30;92.90;;;;;;4972627;28;20049;-48
2022/05/12 12:24:20;;;;;;;4.90;1.23;;;20.40;91.80;;;;;;4973808;28;20062;-49
2022/05/12 12:26:55;;;;;;;5.82;1.40;;;20.60;92.00;;;;;;4964959;28;20502;-49
2022/05/12 12:29:47;;;;;;;5.10;0.90;;;20.90;92.60;;;;;;4956573;28;20046;-49
2022/05/12 12:32:18;;;;;;;7.28;1.00;;;20.70;90.30;;;;;;4955922;28;20043;-49
2022/05/12 12:34:50;;;;;;;4.15;0.80;;;20.80;90.40;;;;;;4974082;28;20497;-48
2022/05/12 12:37:40;;;;;;;6.30;0.88;;;20.60;90.50;;;;;;4973374;28;20096;-49
2022/05/12 12:40:31;;;;;;;5.15;1.15;;;20.80;89.30;;;;;;4954148;28;20069;-48
2022/05/12 12:42:59;;;;;;;6.22;0.85;;;20.70;89.80;;;;;;4973784;28;20077;-48
2022/05/12 12:45:25;;;;;;;4.40;0.93;;;21.20;88.50;;;;;;4972916;28;20042;-48
2022/05/12 12:47:54;;;;;;;16.25;1.83;;;20.80;89.10;;;;;;4973136;28;20526;-48
2022/05/12 12:50:42;;;;;;;6.68;0.80;;;20.80;85.60;;;;;;4973226;28;20081;-49
2022/05/12 12:53:22;;;;;;;5.07;0.90;;;21.10;83.30;;;;;;4971838;28;20067;-47
2022/05/12 12:58:36;;;;;;;4.03;0.98;;;21.00;88.50;;;;;;4973198;28;20092;-46
2022/05/12 13:01:09;;;;;;;4.80;1.08;;;20.90;87.00;;;;;;4973425;28;20037;-49
2022/05/12 13:03:35;;;;;;;8.32;1.08;;;21.40;89.50;;;;;;4973325;28;20043;-47
2022/05/12 13:06:14;;;;;;;9.73;1.77;;;21.40;85.90;;;;;;4972948;28;20447;-47
2022/05/12 13:08:41;;;;;;;4.68;1.10;;;21.30;82.50;;;;;;4972850;28;20117;-46
2022/05/12 13:11:07;;;;;;;6.00;1.08;;;21.30;85.70;;;;;;4972931;28;20039;-48
2022/05/12 13:13:51;;;;;;;12.05;1.23;;;21.30;84.60;;;;;;4972975;28;20559;-49
2022/05/12 13:16:20;;;;;;;3.53;1.10;;;21.50;83.70;;;;;;4972853;28;20117;-50
2022/05/12 13:18:49;;;;;;;7.25;1.00;;;21.60;83.30;;;;;;4955386;28;20274;-49
2022/05/12 13:21:23;;;;;;;3.90;1.00;;;21.70;83.90;;;;;;4970896;28;20037;-47
2022/05/12 13:24:06;;;;;;;6.07;1.00;;;21.80;83.30;;;;;;4972055;28;20049;-48
2022/05/12 13:26:33;;;;;;;3.90;1.13;;;21.90;84.90;;;;;;4972145;28;20137;-51